createdAt,value
2023-05-23T00:01:10.109Z,6.75
2023-05-23T00:03:37.499Z,7.32
2023-05-23T00:06:06.960Z,6.85
2023-05-23T00:08:33.657Z,8.95
2023-05-23T00:11:00.279Z,5.93
2023-05-23T00:13:27.051Z,6.13
2023-05-23T00:15:53.637Z,6.93
2023-05-23T00:18:20.188Z,6.25
2023-05-23T00:20:47.095Z,7.78
2023-05-23T00:23:20.897Z,6.70
2023-05-23T00:25:53.440Z,7.03
2023-05-23T00:28:20.298Z,8.30
2023-05-23T00:30:46.935Z,6.93
2023-05-23T00:33:14.591Z,7.32
2023-05-23T00:38:11.635Z,7.10
2023-05-23T00:40:38.445Z,7.05
2023-05-23T00:43:05.020Z,7.47
2023-05-23T00:45:31.735Z,6.93
2023-05-23T00:48:00.219Z,6.95
2023-05-23T00:50:30.817Z,6.07
2023-05-23T00:53:00.571Z,7.47
2023-05-23T00:55:28.505Z,6.15
2023-05-23T00:57:58.167Z,5.95
2023-05-23T01:00:26.093Z,7.53
2023-05-23T01:02:53.566Z,6.57
2023-05-23T01:07:50.430Z,6.45
2023-05-23T01:10:21.266Z,7.25
2023-05-23T01:13:21.368Z,7.07
2023-05-23T01:15:56.796Z,6.35
2023-05-23T01:18:38.293Z,7.32
2023-05-23T01:21:17.723Z,7.00
2023-05-23T01:23:50.126Z,6.75
2023-05-23T01:26:28.534Z,7.30
2023-05-23T01:29:05.776Z,6.38
2023-05-23T01:31:35.330Z,9.15
2023-05-23T01:34:03.750Z,7.78
2023-05-23T01:36:35.320Z,7.10
2023-05-23T01:39:02.280Z,7.05
2023-05-23T01:41:28.825Z,7.95
2023-05-23T01:43:56.231Z,7.68
2023-05-23T01:46:24.175Z,6.80
2023-05-23T01:48:51.103Z,7.22
2023-05-23T01:51:17.727Z,7.32
2023-05-23T01:53:44.404Z,6.03
2023-05-23T01:56:11.008Z,6.80
2023-05-23T01:58:37.754Z,7.55
2023-05-23T02:01:04.546Z,7.07
2023-05-23T02:03:31.279Z,5.93
2023-05-23T02:05:57.815Z,6.35
2023-05-23T02:08:24.412Z,6.85
2023-05-23T02:13:18.806Z,6.20
2023-05-23T02:15:45.361Z,6.75
2023-05-23T02:18:12.010Z,5.95
2023-05-23T02:20:38.623Z,5.85
2023-05-23T02:23:05.262Z,6.55
2023-05-23T02:25:31.841Z,7.80
2023-05-23T02:27:58.380Z,6.22
2023-05-23T02:30:24.901Z,5.95
2023-05-23T02:32:51.774Z,7.07
2023-05-23T02:35:18.329Z,7.18
2023-05-23T02:37:44.848Z,6.55
2023-05-23T02:40:12.272Z,6.03
2023-05-23T02:42:38.798Z,6.00
2023-05-23T02:45:06.124Z,6.25
2023-05-23T02:47:32.673Z,5.88
2023-05-23T02:49:59.216Z,6.10
2023-05-23T02:52:25.964Z,6.90
2023-05-23T02:54:52.476Z,6.95
2023-05-23T02:57:18.980Z,7.05
2023-05-23T02:59:45.597Z,6.53
2023-05-23T03:02:12.349Z,6.68
2023-05-23T03:04:39.060Z,7.85
2023-05-23T03:07:11.503Z,5.90
2023-05-23T03:09:43.628Z,8.75
2023-05-23T03:12:10.339Z,6.35
2023-05-23T03:14:36.863Z,6.97
2023-05-23T03:17:04.064Z,6.18
2023-05-23T03:19:31.594Z,6.40
2023-05-23T03:21:59.111Z,8.73
2023-05-23T03:24:25.984Z,6.43
2023-05-23T03:26:52.527Z,6.70
2023-05-23T03:29:19.014Z,6.07
2023-05-23T03:31:45.530Z,6.35
2023-05-23T03:34:12.998Z,6.43
2023-05-23T03:36:40.045Z,7.97
2023-05-23T03:39:06.612Z,6.00
2023-05-23T03:41:33.154Z,6.28
2023-05-23T03:44:00.863Z,6.18
2023-05-23T03:48:54.095Z,5.20
2023-05-23T03:51:20.876Z,6.47
2023-05-23T03:53:47.391Z,5.90
2023-05-23T03:56:14.035Z,6.03
2023-05-23T03:58:40.515Z,7.07
2023-05-23T04:01:07.026Z,5.30
2023-05-23T04:03:33.692Z,7.35
2023-05-23T04:06:00.986Z,6.93
2023-05-23T04:08:29.333Z,8.73
2023-05-23T04:10:56.132Z,7.10
2023-05-23T04:13:24.839Z,7.72
2023-05-23T04:15:52.565Z,6.55
2023-05-23T04:18:19.073Z,6.47
2023-05-23T04:20:46.629Z,6.78
2023-05-23T04:25:39.815Z,6.70
2023-05-23T04:28:06.627Z,10.30
2023-05-23T04:30:33.424Z,8.60
2023-05-23T04:33:00.130Z,8.75
2023-05-23T04:35:29.691Z,8.85
2023-05-23T04:37:56.809Z,6.78
2023-05-23T04:40:24.322Z,7.05
2023-05-23T04:42:51.735Z,6.13
2023-05-23T04:45:19.532Z,5.22
2023-05-23T04:47:46.679Z,6.40
2023-05-23T04:50:14.958Z,7.03
2023-05-23T04:52:41.642Z,8.30
2023-05-23T04:55:08.801Z,6.57
2023-05-23T04:57:35.924Z,5.85
2023-05-23T05:00:05.331Z,7.50
2023-05-23T05:02:35.309Z,6.15
2023-05-23T05:05:02.083Z,6.47
2023-05-23T05:07:29.468Z,8.55
2023-05-23T05:09:57.267Z,5.85
2023-05-23T05:12:25.150Z,5.97
2023-05-23T05:14:51.665Z,6.80
2023-05-23T05:17:19.360Z,6.85
2023-05-23T05:19:46.391Z,6.85
2023-05-23T05:22:12.926Z,6.57
2023-05-23T05:24:40.955Z,8.23
2023-05-23T05:27:09.530Z,5.70
2023-05-23T05:29:36.626Z,7.13
2023-05-23T05:32:03.480Z,5.72
2023-05-23T05:34:30.021Z,7.18
2023-05-23T05:36:56.953Z,7.50
2023-05-23T05:39:24.994Z,8.90
2023-05-23T05:41:51.519Z,8.23
2023-05-23T05:44:18.282Z,6.35
2023-05-23T05:46:45.189Z,7.90
2023-05-23T05:49:12.491Z,5.82
2023-05-23T05:51:39.299Z,7.75
2023-05-23T05:54:05.906Z,8.13
2023-05-23T05:56:32.763Z,7.53
2023-05-23T05:58:59.285Z,6.28
2023-05-23T06:01:26.811Z,7.20
2023-05-23T06:06:20.278Z,6.72
2023-05-23T06:08:46.918Z,7.03
2023-05-23T06:11:13.555Z,7.47
2023-05-23T06:13:40.083Z,8.40
2023-05-23T06:16:07.334Z,6.95
2023-05-23T06:18:34.039Z,7.13
2023-05-23T06:21:00.878Z,7.60
2023-05-23T06:23:27.412Z,6.95
2023-05-23T06:25:54.018Z,7.38
2023-05-23T06:28:20.570Z,6.82
2023-05-23T06:30:47.096Z,6.95
2023-05-23T06:33:13.662Z,7.00
2023-05-23T06:35:40.372Z,8.68
2023-05-23T06:38:06.973Z,6.97
2023-05-23T06:40:33.529Z,9.57
2023-05-23T06:43:00.089Z,8.10
2023-05-23T06:45:26.669Z,9.45
2023-05-23T06:47:53.414Z,8.50
2023-05-23T06:50:20.194Z,7.63
2023-05-23T06:52:47.189Z,9.00
2023-05-23T06:55:18.328Z,8.20
2023-05-23T06:57:45.756Z,8.38
2023-05-23T07:00:13.826Z,8.10
2023-05-23T07:02:40.631Z,7.22
2023-05-23T07:05:07.650Z,6.13
2023-05-23T07:07:34.272Z,9.32
2023-05-23T07:10:00.897Z,7.00
2023-05-23T07:12:27.404Z,9.15
2023-05-23T07:14:53.908Z,9.45
2023-05-23T07:17:20.631Z,7.47
2023-05-23T07:19:47.416Z,8.15
2023-05-23T07:22:13.922Z,7.15
2023-05-23T07:24:40.543Z,8.95
2023-05-23T07:27:07.105Z,7.90
2023-05-23T07:29:33.628Z,7.85
2023-05-23T07:32:00.177Z,9.57
2023-05-23T07:34:26.946Z,6.78
2023-05-23T07:36:53.562Z,8.80
2023-05-23T07:39:22.287Z,8.93
2023-05-23T07:41:49.258Z,12.90
2023-05-23T07:44:16.696Z,7.38
2023-05-23T07:46:43.279Z,7.88
2023-05-23T07:49:10.004Z,7.30
2023-05-23T07:51:36.991Z,9.50
2023-05-23T07:54:03.616Z,6.55
2023-05-23T07:56:30.189Z,7.60
2023-05-23T07:58:56.792Z,8.15
2023-05-23T08:01:24.995Z,8.13
2023-05-23T08:03:51.688Z,6.95
2023-05-23T08:06:18.203Z,6.63
2023-05-23T08:08:44.744Z,7.03
2023-05-23T08:11:11.321Z,7.05
2023-05-23T08:13:37.868Z,6.88
2023-05-23T08:16:04.445Z,7.15
2023-05-23T08:18:31.160Z,8.35
2023-05-23T08:20:57.776Z,7.00
2023-05-23T08:23:24.345Z,7.45
2023-05-23T08:25:51.831Z,6.95
2023-05-23T08:28:18.414Z,7.55
2023-05-23T08:30:45.029Z,7.47
2023-05-23T08:33:11.610Z,6.88
2023-05-23T08:35:38.296Z,7.47
2023-05-23T08:38:09.859Z,6.75
2023-05-23T08:40:37.278Z,6.60
2023-05-23T08:43:04.855Z,8.00
2023-05-23T08:48:01.084Z,7.93
2023-05-23T08:50:30.661Z,7.13
2023-05-23T08:52:59.268Z,8.90
2023-05-23T08:55:28.377Z,5.78
2023-05-23T08:57:56.302Z,6.95
2023-05-23T09:00:25.327Z,6.13
2023-05-23T09:02:52.781Z,7.78
2023-05-23T09:07:51.716Z,6.47
2023-05-23T09:10:22.413Z,5.88
2023-05-23T09:12:49.392Z,7.88
2023-05-23T09:15:17.135Z,5.13
2023-05-23T09:17:44.968Z,7.03
2023-05-23T09:20:14.698Z,4.65
2023-05-23T09:22:45.858Z,7.45
2023-05-23T09:25:12.458Z,5.90
2023-05-23T09:27:38.997Z,5.75
2023-05-23T09:30:07.163Z,5.38
2023-05-23T09:32:33.777Z,7.15
2023-05-23T09:35:04.708Z,6.57
2023-05-23T09:37:31.396Z,5.45
2023-05-23T09:39:59.664Z,6.85
2023-05-23T09:42:26.296Z,4.63
2023-05-23T09:44:53.917Z,8.48
2023-05-23T09:47:20.636Z,6.95
2023-05-23T09:49:48.104Z,6.88
2023-05-23T09:52:14.800Z,7.95
2023-05-23T09:54:41.393Z,5.63
2023-05-23T09:57:11.197Z,5.53
2023-05-23T09:59:41.244Z,8.05
2023-05-23T10:02:17.013Z,5.35
2023-05-23T10:04:44.269Z,5.88
2023-05-23T10:07:17.286Z,6.68
2023-05-23T10:09:55.846Z,5.60
2023-05-23T10:12:44.681Z,5.07
2023-05-23T10:15:14.254Z,7.43
2023-05-23T10:18:10.114Z,7.55
2023-05-23T10:20:40.228Z,5.35
2023-05-23T10:23:07.369Z,4.93
2023-05-23T10:25:36.968Z,4.93
2023-05-23T10:28:05.020Z,6.57
2023-05-23T10:30:32.003Z,4.68
2023-05-23T10:32:59.580Z,4.78
2023-05-23T10:35:55.816Z,5.10
2023-05-23T10:38:36.729Z,4.93
2023-05-23T10:41:16.863Z,5.80
2023-05-23T10:44:05.383Z,4.40
2023-05-23T10:46:54.237Z,5.40
2023-05-23T10:49:42.016Z,4.28
2023-05-23T10:52:10.457Z,6.05
2023-05-23T10:54:41.930Z,5.32
2023-05-23T10:57:10.897Z,4.47
2023-05-23T10:59:39.306Z,4.50
2023-05-23T11:02:17.993Z,5.00
2023-05-23T11:04:45.019Z,6.32
2023-05-23T11:07:31.927Z,3.78
2023-05-23T11:10:08.480Z,4.97
2023-05-23T11:12:40.239Z,4.35
2023-05-23T11:15:27.064Z,4.47
2023-05-23T11:17:55.155Z,5.38
2023-05-23T11:20:27.193Z,4.07
2023-05-23T11:22:55.820Z,3.50
2023-05-23T11:25:40.961Z,5.30
2023-05-23T11:28:07.710Z,4.43
2023-05-23T11:30:37.324Z,3.35
2023-05-23T11:33:08.932Z,4.38
2023-05-23T11:35:36.531Z,4.57
2023-05-23T11:38:05.028Z,4.28
2023-05-23T11:40:34.163Z,6.30
2023-05-23T11:43:02.340Z,4.05
2023-05-23T11:45:31.721Z,4.45
2023-05-23T11:47:58.609Z,4.90
2023-05-23T11:50:25.363Z,3.70
2023-05-23T11:52:52.129Z,4.85
2023-05-23T11:55:22.602Z,4.85
2023-05-23T11:57:49.941Z,4.38
2023-05-23T12:00:17.239Z,5.75
2023-05-23T12:02:45.183Z,3.90
2023-05-23T12:05:14.088Z,4.20
2023-05-23T12:07:44.881Z,4.93
2023-05-23T12:10:11.798Z,3.97
2023-05-23T12:12:38.542Z,5.32
2023-05-23T12:15:05.460Z,3.90
2023-05-23T12:17:33.171Z,3.70
2023-05-23T12:20:00.023Z,4.80
2023-05-23T12:22:28.534Z,4.45
2023-05-23T12:24:56.434Z,4.55
2023-05-23T12:27:35.714Z,3.75
2023-05-23T12:30:14.411Z,3.72
2023-05-23T12:32:42.339Z,4.45
2023-05-23T12:35:10.752Z,3.50
2023-05-23T12:37:43.103Z,4.38
2023-05-23T12:40:16.663Z,3.97
2023-05-23T12:42:53.982Z,4.05
2023-05-23T12:45:30.759Z,3.95
2023-05-23T12:47:57.305Z,4.07
2023-05-23T12:50:23.858Z,4.20
2023-05-23T12:52:50.541Z,6.20
2023-05-23T12:55:17.052Z,4.65
2023-05-23T12:57:44.318Z,3.70
2023-05-23T13:00:11.779Z,4.25
2023-05-23T13:05:06.559Z,4.22
2023-05-23T13:07:33.109Z,3.97
2023-05-23T13:09:59.763Z,3.80
2023-05-23T13:12:26.365Z,3.72
2023-05-23T13:14:53.004Z,4.32
2023-05-23T13:17:19.551Z,3.55
2023-05-23T13:19:46.417Z,3.67
2023-05-23T13:22:13.229Z,5.88
2023-05-23T13:24:40.786Z,3.88
2023-05-23T13:29:34.508Z,3.70
2023-05-23T13:32:01.398Z,4.57
2023-05-23T13:34:28.725Z,3.97
2023-05-23T13:36:55.654Z,3.40
2023-05-23T13:39:22.878Z,3.35
2023-05-23T13:41:52.426Z,3.33
2023-05-23T13:44:18.996Z,3.53
2023-05-23T13:46:45.691Z,4.40
2023-05-23T13:49:12.379Z,3.35
2023-05-23T13:51:38.976Z,4.35
2023-05-23T13:54:06.095Z,4.25
2023-05-23T13:56:33.677Z,3.88
2023-05-23T13:59:00.523Z,4.60
2023-05-23T14:01:27.280Z,3.55
2023-05-23T14:03:54.424Z,4.15
2023-05-23T14:06:21.317Z,4.25
2023-05-23T14:08:47.839Z,4.65
2023-05-23T14:11:14.396Z,5.30
2023-05-23T14:13:40.961Z,3.83
2023-05-23T14:16:07.558Z,4.15
2023-05-23T14:18:34.091Z,4.43
2023-05-23T14:21:00.701Z,3.88
2023-05-23T14:23:27.288Z,4.55
2023-05-23T14:25:53.787Z,4.38
2023-05-23T14:28:20.362Z,4.88
2023-05-23T14:30:46.867Z,3.88
2023-05-23T14:33:13.436Z,3.90
2023-05-23T14:35:40.346Z,3.80
2023-05-23T14:38:06.995Z,5.07
2023-05-23T14:40:33.511Z,3.90
2023-05-23T14:43:00.188Z,4.90
2023-05-23T14:45:27.365Z,3.40
2023-05-23T14:47:54.033Z,3.70
2023-05-23T14:50:20.596Z,4.60
2023-05-23T14:52:47.176Z,3.97
2023-05-23T14:55:13.767Z,3.22
2023-05-23T14:57:40.358Z,3.90
2023-05-23T15:00:08.043Z,4.60
2023-05-23T15:02:35.010Z,3.58
2023-05-23T15:05:01.712Z,4.38
2023-05-23T15:07:28.269Z,3.45
2023-05-23T15:09:54.853Z,3.13
2023-05-23T15:12:21.601Z,3.40
2023-05-23T15:14:48.376Z,3.70
2023-05-23T15:17:22.970Z,4.20
2023-05-23T15:19:50.827Z,3.40
2023-05-23T15:22:34.299Z,4.18
2023-05-23T15:25:04.179Z,4.53
2023-05-23T15:27:30.726Z,3.63
2023-05-23T15:29:57.251Z,4.22
2023-05-23T15:32:24.000Z,3.40
2023-05-23T15:34:50.746Z,5.30
2023-05-23T15:37:17.965Z,4.30
2023-05-23T15:39:44.653Z,4.80
2023-05-23T15:42:11.260Z,6.05
2023-05-23T15:44:38.028Z,3.50
2023-05-23T15:47:05.214Z,4.68
2023-05-23T15:49:31.766Z,3.63
2023-05-23T15:51:58.293Z,3.88
2023-05-23T15:54:24.862Z,4.50
2023-05-23T15:56:51.369Z,4.90
2023-05-23T15:59:17.967Z,4.07
2023-05-23T16:01:44.595Z,5.18
2023-05-23T16:04:11.205Z,3.72
2023-05-23T16:06:39.085Z,3.60
2023-05-23T16:09:05.658Z,4.03
2023-05-23T16:11:32.282Z,3.63
2023-05-23T16:13:59.098Z,3.78
2023-05-23T16:16:25.850Z,4.75
2023-05-23T16:18:52.455Z,3.58
2023-05-23T16:21:20.754Z,3.47
2023-05-23T16:23:50.959Z,5.30
2023-05-23T16:26:18.714Z,3.92
2023-05-23T16:28:45.518Z,4.70
2023-05-23T16:31:16.843Z,4.63
2023-05-23T16:33:44.314Z,3.67
2023-05-23T16:36:11.047Z,4.38
2023-05-23T16:38:37.618Z,4.22
2023-05-23T16:41:04.371Z,3.60
2023-05-23T16:43:30.928Z,3.60
2023-05-23T16:45:57.557Z,3.75
2023-05-23T16:48:24.124Z,3.47
2023-05-23T16:50:50.826Z,4.68
2023-05-23T16:53:17.358Z,4.03
2023-05-23T16:55:45.478Z,7.10
2023-05-23T16:58:15.049Z,3.70
2023-05-23T17:00:41.583Z,3.60
2023-05-23T17:03:08.597Z,4.93
2023-05-23T17:05:35.392Z,4.43
2023-05-23T17:08:02.499Z,4.55
2023-05-23T17:10:29.059Z,5.35
2023-05-23T17:12:55.757Z,4.65
2023-05-23T17:15:22.336Z,4.75
2023-05-23T17:17:49.061Z,3.47
2023-05-23T17:20:15.727Z,3.97
2023-05-23T17:22:42.325Z,4.47
2023-05-23T17:25:11.272Z,4.03
2023-05-23T17:27:37.787Z,6.03
2023-05-23T17:30:05.176Z,4.57
2023-05-23T17:32:31.936Z,3.40
2023-05-23T17:34:58.697Z,5.57
2023-05-23T17:37:26.422Z,4.22
2023-05-23T17:39:54.608Z,3.15
2023-05-23T17:42:22.836Z,3.42
2023-05-23T17:44:49.404Z,4.65
2023-05-23T17:47:16.006Z,5.10
2023-05-23T17:49:42.515Z,5.72
2023-05-23T17:52:10.056Z,3.72
2023-05-23T17:57:05.166Z,3.53
2023-05-23T17:59:32.809Z,4.32
2023-05-23T18:01:59.785Z,3.88
2023-05-23T18:04:26.424Z,3.90
2023-05-23T18:06:53.097Z,4.32
2023-05-23T18:09:19.754Z,3.90
2023-05-23T18:11:46.465Z,3.45
2023-05-23T18:14:13.041Z,3.88
2023-05-23T18:16:39.613Z,6.07
2023-05-23T18:19:06.484Z,4.05
2023-05-23T18:21:34.759Z,4.55
2023-05-23T18:24:03.669Z,4.95
2023-05-23T18:26:30.389Z,5.15
2023-05-23T18:28:56.960Z,3.90
2023-05-23T18:31:23.492Z,3.97
2023-05-23T18:33:50.044Z,3.92
2023-05-23T18:36:16.612Z,4.32
2023-05-23T18:38:43.229Z,5.18
2023-05-23T18:41:13.236Z,5.13
2023-05-23T18:43:41.235Z,4.35
2023-05-23T18:46:07.860Z,3.35
2023-05-23T18:48:35.736Z,4.07
2023-05-23T18:51:02.626Z,6.35
2023-05-23T18:53:29.191Z,4.38
2023-05-23T18:55:55.746Z,4.07
2023-05-23T18:58:22.301Z,3.90
2023-05-23T19:00:49.079Z,3.42
2023-05-23T19:03:17.012Z,5.32
2023-05-23T19:05:43.817Z,4.78
2023-05-23T19:08:10.679Z,4.22
2023-05-23T19:10:37.222Z,3.40
2023-05-23T19:13:03.957Z,3.53
2023-05-23T19:15:30.503Z,4.68
2023-05-23T19:17:57.141Z,4.90
2023-05-23T19:20:23.775Z,4.20
2023-05-23T19:22:52.156Z,3.58
2023-05-23T19:25:20.477Z,3.90
2023-05-23T19:27:47.062Z,4.78
2023-05-23T19:30:13.659Z,4.15
2023-05-23T19:32:40.423Z,5.43
2023-05-23T19:35:08.232Z,4.30
2023-05-23T19:37:34.997Z,4.18
2023-05-23T19:40:01.870Z,3.63
2023-05-23T19:42:28.516Z,3.50
2023-05-23T19:44:55.051Z,3.53
2023-05-23T19:47:21.783Z,4.70
2023-05-23T19:49:48.330Z,4.45
2023-05-23T19:52:14.955Z,4.78
2023-05-23T19:54:41.847Z,3.28
2023-05-23T19:57:08.774Z,3.58
2023-05-23T19:59:35.382Z,3.40
2023-05-23T20:02:01.943Z,3.35
2023-05-23T20:04:28.511Z,3.67
2023-05-23T20:06:56.029Z,3.33
2023-05-23T20:11:56.798Z,3.65
2023-05-23T20:16:49.802Z,3.20
2023-05-23T20:19:16.479Z,4.13
2023-05-23T20:21:43.049Z,3.65
2023-05-23T20:24:09.534Z,4.10
2023-05-23T20:26:36.078Z,3.88
2023-05-23T20:29:02.618Z,3.88
2023-05-23T20:31:29.341Z,3.55
2023-05-23T20:33:55.907Z,2.70
2023-05-23T20:36:23.578Z,3.17
2023-05-23T20:38:50.383Z,2.75
2023-05-23T20:41:17.616Z,4.60
2023-05-23T20:43:45.718Z,3.63
2023-05-23T20:46:16.056Z,3.55
2023-05-23T20:48:42.651Z,3.58
2023-05-23T20:51:09.265Z,5.10
2023-05-23T20:53:36.049Z,3.35
2023-05-23T20:56:03.492Z,3.90
2023-05-23T20:58:30.852Z,3.30
2023-05-23T21:00:58.637Z,4.35
2023-05-23T21:03:25.603Z,4.30
2023-05-23T21:05:52.240Z,4.57
2023-05-23T21:08:18.830Z,4.63
2023-05-23T21:10:49.344Z,3.72
2023-05-23T21:13:18.144Z,3.75
2023-05-23T21:15:44.870Z,5.43
2023-05-23T21:18:11.531Z,4.07
2023-05-23T21:20:38.130Z,2.88
2023-05-23T21:23:04.756Z,4.00
2023-05-23T21:25:31.297Z,3.72
2023-05-23T21:27:57.820Z,3.85
2023-05-23T21:30:26.166Z,2.80
2023-05-23T21:32:53.072Z,3.70
2023-05-23T21:35:19.689Z,3.42
2023-05-23T21:37:46.394Z,3.05
2023-05-23T21:40:12.958Z,3.35
2023-05-23T21:42:39.515Z,3.95
2023-05-23T21:45:06.781Z,5.35
2023-05-23T21:47:33.392Z,4.30
2023-05-23T21:49:59.969Z,4.85
2023-05-23T21:52:26.490Z,5.95
2023-05-23T21:54:52.990Z,3.65
2023-05-23T21:57:19.515Z,3.92
2023-05-23T21:59:46.076Z,3.28
2023-05-23T22:02:12.661Z,4.03
2023-05-23T22:04:39.313Z,2.53
2023-05-23T22:07:06.080Z,4.10
2023-05-23T22:09:32.651Z,2.80
2023-05-23T22:11:59.154Z,4.20
2023-05-23T22:14:25.850Z,3.35
2023-05-23T22:16:52.431Z,2.97
2023-05-23T22:19:21.061Z,3.42
2023-05-23T22:21:47.887Z,4.45
2023-05-23T22:24:14.469Z,2.97
2023-05-23T22:26:41.140Z,3.22
2023-05-23T22:29:07.913Z,3.15
2023-05-23T22:31:35.542Z,3.38
2023-05-23T22:34:02.245Z,3.55
2023-05-23T22:36:28.861Z,2.92
2023-05-23T22:38:56.110Z,3.72
2023-05-23T22:41:23.438Z,4.18
2023-05-23T22:43:50.124Z,3.20
2023-05-23T22:46:16.796Z,4.03
2023-05-23T22:48:43.339Z,3.05
2023-05-23T22:51:12.455Z,3.55
2023-05-23T22:53:39.025Z,4.63
2023-05-23T22:56:05.617Z,4.25
2023-05-23T22:58:32.180Z,4.68
2023-05-23T23:00:58.751Z,4.65
2023-05-23T23:03:25.335Z,2.83
2023-05-23T23:05:51.852Z,3.47
2023-05-23T23:08:19.449Z,2.35
2023-05-23T23:13:14.080Z,3.38
2023-05-23T23:15:42.737Z,4.93
2023-05-23T23:18:09.579Z,3.08
2023-05-23T23:20:36.571Z,4.35
2023-05-23T23:23:03.316Z,3.90
2023-05-23T23:25:30.376Z,4.68
2023-05-23T23:27:57.069Z,3.13
2023-05-23T23:30:23.584Z,2.45
2023-05-23T23:32:50.142Z,2.90
2023-05-23T23:35:16.849Z,2.92
2023-05-23T23:37:43.450Z,3.17
2023-05-23T23:40:10.686Z,2.65
2023-05-23T23:42:37.265Z,4.45
2023-05-23T23:45:04.715Z,3.97
2023-05-23T23:47:32.541Z,3.80
2023-05-23T23:49:59.168Z,3.08
2023-05-23T23:52:26.064Z,2.67
2023-05-23T23:54:52.767Z,2.83
2023-05-23T23:57:19.352Z,3.67
2023-05-23T23:59:46.146Z,3.25
